createdAt,value
2024-04-09T00:00:20.022Z,13.99
2024-04-09T00:01:19.973Z,13.95
2024-04-09T00:02:19.901Z,14.00
2024-04-09T00:03:20.738Z,13.93
2024-04-09T00:04:20.708Z,13.99
2024-04-09T00:05:19.935Z,13.99
2024-04-09T00:06:19.886Z,13.99
2024-04-09T00:07:19.861Z,14.11
2024-04-09T00:08:19.869Z,14.00
2024-04-09T00:09:19.984Z,14.12
2024-04-09T00:10:19.834Z,14.10
2024-04-09T00:11:19.864Z,14.17
2024-04-09T00:12:19.865Z,14.25
2024-04-09T00:13:19.832Z,14.25
2024-04-09T00:14:19.801Z,14.23
2024-04-09T00:15:19.842Z,14.18
2024-04-09T00:16:19.804Z,14.23
2024-04-09T00:17:19.855Z,14.23
2024-04-09T00:18:20.016Z,14.22
2024-04-09T00:19:19.790Z,14.23
2024-04-09T00:20:19.761Z,14.22
2024-04-09T00:21:19.792Z,14.25
2024-04-09T00:22:20.608Z,14.11
2024-04-09T00:23:19.726Z,14.23
2024-04-09T00:24:19.782Z,14.12
2024-04-09T00:25:19.715Z,14.22
2024-04-09T00:26:19.715Z,14.28
2024-04-09T00:27:19.792Z,14.18
2024-04-09T00:28:19.693Z,14.32
2024-04-09T00:29:19.687Z,14.29
2024-04-09T00:30:19.760Z,14.29
2024-04-09T00:31:20.522Z,14.28
2024-04-09T00:32:19.698Z,14.15
2024-04-09T00:33:19.998Z,14.07
2024-04-09T00:34:19.817Z,14.11
2024-04-09T00:35:19.644Z,14.10
2024-04-09T00:36:19.662Z,14.04
2024-04-09T00:37:19.635Z,14.11
2024-04-09T00:38:19.627Z,14.07
2024-04-09T00:39:19.671Z,14.07
2024-04-09T00:40:19.606Z,14.05
2024-04-09T00:41:19.672Z,14.04
2024-04-09T00:42:19.615Z,13.99
2024-04-09T00:43:19.577Z,13.96
2024-04-09T00:44:19.565Z,13.92
2024-04-09T00:45:19.601Z,13.97
2024-04-09T00:46:19.588Z,13.95
2024-04-09T00:47:19.624Z,13.93
2024-04-09T00:48:19.725Z,13.99
2024-04-09T00:49:19.785Z,14.00
2024-04-09T00:50:19.551Z,13.90
2024-04-09T00:51:19.703Z,13.95
2024-04-09T00:52:19.519Z,14.00
2024-04-09T00:53:19.506Z,13.99
2024-04-09T00:54:19.557Z,14.10
2024-04-09T00:55:19.521Z,14.12
2024-04-09T00:56:19.485Z,13.96
2024-04-09T00:57:19.497Z,14.26
2024-04-09T00:58:19.575Z,14.18
2024-04-09T00:59:19.475Z,14.23
2024-04-09T01:00:19.533Z,14.20
2024-04-09T01:01:19.497Z,14.18
2024-04-09T01:02:19.494Z,14.22
2024-04-09T01:03:20.539Z,14.17
2024-04-09T01:04:19.642Z,14.32
2024-04-09T01:05:19.451Z,14.14
2024-04-09T01:06:19.467Z,14.28
2024-04-09T01:07:19.398Z,14.20
2024-04-09T01:08:19.398Z,14.07
2024-04-09T01:09:19.478Z,14.23
2024-04-09T01:10:19.473Z,14.14
2024-04-09T01:11:19.501Z,14.15
2024-04-09T01:12:19.422Z,14.07
2024-04-09T01:13:19.351Z,14.00
2024-04-09T01:14:19.378Z,14.12
2024-04-09T01:15:19.415Z,14.15
2024-04-09T01:16:19.348Z,14.18
2024-04-09T01:17:19.392Z,14.18
2024-04-09T01:18:19.440Z,14.25
2024-04-09T01:19:19.343Z,14.23
2024-04-09T01:20:19.327Z,14.36
2024-04-09T01:21:19.315Z,14.25
2024-04-09T01:22:19.295Z,14.36
2024-04-09T01:23:19.286Z,14.33
2024-04-09T01:24:19.357Z,14.36
2024-04-09T01:25:19.275Z,14.30
2024-04-09T01:26:19.268Z,14.32
2024-04-09T01:27:19.330Z,14.33
2024-04-09T01:28:19.260Z,14.40
2024-04-09T01:29:19.263Z,14.40
2024-04-09T01:30:19.257Z,14.59
2024-04-09T01:31:19.221Z,14.45
2024-04-09T01:32:19.263Z,14.53
2024-04-09T01:33:20.302Z,14.65
2024-04-09T01:34:19.384Z,14.58
2024-04-09T01:35:19.202Z,14.60
2024-04-09T01:36:19.222Z,14.62
2024-04-09T01:37:19.428Z,14.68
2024-04-09T01:38:19.197Z,14.63
2024-04-09T01:39:19.201Z,14.12
2024-04-09T01:40:19.180Z,13.92
2024-04-09T01:41:19.153Z,13.78
2024-04-09T01:42:19.209Z,13.75
2024-04-09T01:43:19.166Z,13.70
2024-04-09T01:44:19.178Z,13.72
2024-04-09T01:45:19.175Z,13.72
2024-04-09T01:46:19.107Z,13.89
2024-04-09T01:47:19.298Z,13.83
2024-04-09T01:48:19.214Z,13.90
2024-04-09T01:49:20.090Z,13.95
2024-04-09T01:50:19.092Z,13.89
2024-04-09T01:51:19.131Z,13.93
2024-04-09T01:52:20.024Z,13.93
2024-04-09T01:53:19.124Z,13.83
2024-04-09T01:54:19.094Z,13.75
2024-04-09T01:55:19.040Z,13.71
2024-04-09T01:56:19.036Z,13.75
2024-04-09T01:57:19.098Z,13.72
2024-04-09T01:58:19.022Z,13.77
2024-04-09T01:59:19.007Z,13.65
2024-04-09T02:00:19.028Z,13.68
2024-04-09T02:01:19.016Z,13.72
2024-04-09T02:02:19.047Z,13.68
2024-04-09T02:03:19.139Z,13.74
2024-04-09T02:04:19.259Z,13.85
2024-04-09T02:05:18.980Z,13.85
2024-04-09T02:06:19.091Z,13.63
2024-04-09T02:07:18.983Z,13.50
2024-04-09T02:08:18.933Z,13.46
2024-04-09T02:09:19.943Z,13.30
2024-04-09T02:10:18.927Z,13.33
2024-04-09T02:11:19.026Z,13.18
2024-04-09T02:12:18.959Z,13.22
2024-04-09T02:13:18.936Z,13.25
2024-04-09T02:14:18.910Z,13.28
2024-04-09T02:15:19.208Z,13.19
2024-04-09T02:16:18.966Z,13.22
2024-04-09T02:17:18.892Z,13.28
2024-04-09T02:18:18.937Z,13.23
2024-04-09T02:19:18.865Z,13.30
2024-04-09T02:20:19.215Z,13.41
2024-04-09T02:21:18.955Z,13.35
2024-04-09T02:22:18.840Z,13.35
2024-04-09T02:23:18.831Z,13.42
2024-04-09T02:24:18.910Z,13.41
2024-04-09T02:25:19.511Z,13.35
2024-04-09T02:26:18.816Z,13.38
2024-04-09T02:27:18.832Z,13.39
2024-04-09T02:28:18.805Z,13.41
2024-04-09T02:29:18.800Z,13.37
2024-04-09T02:30:19.643Z,13.47
2024-04-09T02:31:18.829Z,13.50
2024-04-09T02:32:18.760Z,13.53
2024-04-09T02:33:18.955Z,13.52
2024-04-09T02:34:18.752Z,13.46
2024-04-09T02:35:18.763Z,13.49
2024-04-09T02:36:18.742Z,13.59
2024-04-09T02:37:18.737Z,13.52
2024-04-09T02:38:18.703Z,13.59
2024-04-09T02:39:18.728Z,13.47
2024-04-09T02:40:18.725Z,13.41
2024-04-09T02:41:18.687Z,13.30
2024-04-09T02:42:18.757Z,13.33
2024-04-09T02:43:18.673Z,13.35
2024-04-09T02:44:18.690Z,13.31
2024-04-09T02:45:18.706Z,13.31
2024-04-09T02:46:18.641Z,13.44
2024-04-09T02:47:18.791Z,13.35
2024-04-09T02:48:18.779Z,13.44
2024-04-09T02:49:18.695Z,13.46
2024-04-09T02:50:18.621Z,13.49
2024-04-09T02:51:18.654Z,13.57
2024-04-09T02:52:18.602Z,13.41
2024-04-09T02:53:18.602Z,13.52
2024-04-09T02:54:18.707Z,13.46
2024-04-09T02:55:18.610Z,13.54
2024-04-09T02:56:18.575Z,13.59
2024-04-09T02:57:18.614Z,13.57
2024-04-09T02:58:18.596Z,13.50
2024-04-09T02:59:18.582Z,13.47
2024-04-09T03:00:18.632Z,13.53
2024-04-09T03:01:18.549Z,13.56
2024-04-09T03:02:18.574Z,13.56
2024-04-09T03:03:18.604Z,13.60
2024-04-09T03:04:18.606Z,13.67
2024-04-09T03:05:18.511Z,13.65
2024-04-09T03:06:18.593Z,13.59
2024-04-09T03:07:18.503Z,13.68
2024-04-09T03:08:18.519Z,13.68
2024-04-09T03:09:18.554Z,13.65
2024-04-09T03:10:18.487Z,13.68
2024-04-09T03:11:18.608Z,13.59
2024-04-09T03:12:18.518Z,13.72
2024-04-09T03:13:18.486Z,13.68
2024-04-09T03:14:18.439Z,13.77
2024-04-09T03:15:18.464Z,13.78
2024-04-09T03:16:18.579Z,13.81
2024-04-09T03:17:18.613Z,13.78
2024-04-09T03:18:18.434Z,13.89
2024-04-09T03:19:18.400Z,13.81
2024-04-09T03:20:18.399Z,13.78
2024-04-09T03:21:18.413Z,13.77
2024-04-09T03:22:18.417Z,13.74
2024-04-09T03:23:18.401Z,13.83
2024-04-09T03:24:19.544Z,13.89
2024-04-09T03:25:18.368Z,13.86
2024-04-09T03:26:18.377Z,13.90
2024-04-09T03:27:18.396Z,13.90
2024-04-09T03:28:18.328Z,13.92
2024-04-09T03:29:18.339Z,13.83
2024-04-09T03:30:18.375Z,13.87
2024-04-09T03:31:18.375Z,13.90
2024-04-09T03:32:18.330Z,13.92
2024-04-09T03:33:18.418Z,13.99
2024-04-09T03:34:18.484Z,13.90
2024-04-09T03:35:18.273Z,13.90
2024-04-09T03:36:18.425Z,13.93
2024-04-09T03:37:18.263Z,13.93
2024-04-09T03:38:18.255Z,13.92
2024-04-09T03:39:18.300Z,13.81
2024-04-09T03:40:18.263Z,13.90
2024-04-09T03:41:18.269Z,13.93
2024-04-09T03:42:18.235Z,13.87
2024-04-09T03:43:18.217Z,13.89
2024-04-09T03:44:18.211Z,13.74
2024-04-09T03:45:18.292Z,13.78
2024-04-09T03:46:18.194Z,13.78
2024-04-09T03:47:18.278Z,13.78
2024-04-09T03:48:18.306Z,13.71
2024-04-09T03:49:18.353Z,13.67
2024-04-09T03:50:18.190Z,13.71
2024-04-09T03:51:18.169Z,13.71
2024-04-09T03:52:18.150Z,13.62
2024-04-09T03:53:18.138Z,13.57
2024-04-09T03:54:18.260Z,13.54
2024-04-09T03:55:18.146Z,13.53
2024-04-09T03:56:18.140Z,13.50
2024-04-09T03:57:18.145Z,13.63
2024-04-09T03:58:18.102Z,13.57
2024-04-09T03:59:18.120Z,13.57
2024-04-09T04:00:18.184Z,13.53
2024-04-09T04:01:18.139Z,13.59
2024-04-09T04:02:18.112Z,13.60
2024-04-09T04:03:18.150Z,13.56
2024-04-09T04:04:18.153Z,13.47
2024-04-09T04:05:18.040Z,13.52
2024-04-09T04:06:18.163Z,13.59
2024-04-09T04:07:18.026Z,13.63
2024-04-09T04:08:18.022Z,13.67
2024-04-09T04:09:18.102Z,13.63
2024-04-09T04:10:18.010Z,13.63
2024-04-09T04:11:18.111Z,13.60
2024-04-09T04:12:18.027Z,13.65
2024-04-09T04:13:18.007Z,13.72
2024-04-09T04:14:18.007Z,13.60
2024-04-09T04:15:18.047Z,13.65
2024-04-09T04:16:17.967Z,13.65
2024-04-09T04:17:18.056Z,13.67
2024-04-09T04:18:18.011Z,13.60
2024-04-09T04:19:18.098Z,13.65
2024-04-09T04:20:17.949Z,13.71
2024-04-09T04:21:18.041Z,13.72
2024-04-09T04:22:17.927Z,13.62
2024-04-09T04:23:17.946Z,13.62
2024-04-09T04:24:17.940Z,13.62
2024-04-09T04:25:17.897Z,13.59
2024-04-09T04:26:17.954Z,13.63
2024-04-09T04:27:17.922Z,13.65
2024-04-09T04:28:17.972Z,13.59
2024-04-09T04:29:17.977Z,13.59
2024-04-09T04:30:18.006Z,13.47
2024-04-09T04:31:17.912Z,13.41
2024-04-09T04:32:17.914Z,13.38
2024-04-09T04:33:18.150Z,13.46
2024-04-09T04:34:17.919Z,13.37
2024-04-09T04:35:17.817Z,13.33
2024-04-09T04:36:17.884Z,13.35
2024-04-09T04:37:17.835Z,13.35
2024-04-09T04:38:17.793Z,13.44
2024-04-09T04:39:17.818Z,13.33
2024-04-09T04:40:17.794Z,13.35
2024-04-09T04:41:17.775Z,13.31
2024-04-09T04:42:17.820Z,13.33
2024-04-09T04:43:17.771Z,13.30
2024-04-09T04:44:17.751Z,13.27
2024-04-09T04:45:17.767Z,13.22
2024-04-09T04:46:17.759Z,13.31
2024-04-09T04:47:17.775Z,13.23
2024-04-09T04:48:17.939Z,13.22
2024-04-09T04:49:17.843Z,13.19
2024-04-09T04:50:17.695Z,13.18
2024-04-09T04:51:17.776Z,13.16
2024-04-09T04:52:17.706Z,13.16
2024-04-09T04:53:17.687Z,13.09
2024-04-09T04:54:17.685Z,13.05
2024-04-09T04:55:17.662Z,13.11
2024-04-09T04:56:17.683Z,13.03
2024-04-09T04:57:17.707Z,13.09
2024-04-09T04:58:17.661Z,13.05
2024-04-09T04:59:17.630Z,13.08
2024-04-09T05:00:17.663Z,13.09
2024-04-09T05:01:17.685Z,13.16
2024-04-09T05:02:17.653Z,13.13
2024-04-09T05:03:17.710Z,13.08
2024-04-09T05:04:17.760Z,13.16
2024-04-09T05:05:17.675Z,13.09
2024-04-09T05:06:17.642Z,13.01
2024-04-09T05:07:17.577Z,13.08
2024-04-09T05:08:17.561Z,13.11
2024-04-09T05:09:17.584Z,13.16
2024-04-09T05:10:17.576Z,13.13
2024-04-09T05:11:17.549Z,13.09
2024-04-09T05:12:17.573Z,13.11
2024-04-09T05:13:17.558Z,13.12
2024-04-09T05:14:17.521Z,13.19
2024-04-09T05:15:17.593Z,13.12
2024-04-09T05:16:17.496Z,13.25
2024-04-09T05:17:17.537Z,13.13
2024-04-09T05:18:17.727Z,13.25
2024-04-09T05:19:17.577Z,13.15
2024-04-09T05:20:17.495Z,13.31
2024-04-09T05:21:17.569Z,13.23
2024-04-09T05:22:17.447Z,13.25
2024-04-09T05:23:17.502Z,13.33
2024-04-09T05:24:17.504Z,13.39
2024-04-09T05:25:17.462Z,13.37
2024-04-09T05:26:17.429Z,13.56
2024-04-09T05:27:17.432Z,13.54
2024-04-09T05:28:17.417Z,13.53
2024-04-09T05:29:17.424Z,13.57
2024-04-09T05:30:17.431Z,13.67
2024-04-09T05:31:17.385Z,13.74
2024-04-09T05:32:17.461Z,13.74
2024-04-09T05:33:17.469Z,13.67
2024-04-09T05:34:17.548Z,13.67
2024-04-09T05:35:17.351Z,13.74
2024-04-09T05:36:17.383Z,13.78
2024-04-09T05:37:17.357Z,13.90
2024-04-09T05:38:17.353Z,13.99
2024-04-09T05:39:17.386Z,13.89
2024-04-09T05:40:17.351Z,13.89
2024-04-09T05:41:17.322Z,13.99
2024-04-09T05:42:17.391Z,14.00
2024-04-09T05:43:17.325Z,13.92
2024-04-09T05:44:17.337Z,14.08
2024-04-09T05:45:17.429Z,14.00
2024-04-09T05:46:17.282Z,14.04
2024-04-09T05:47:17.404Z,13.95
2024-04-09T05:48:17.533Z,14.04
2024-04-09T05:49:17.385Z,14.03
2024-04-09T05:50:17.395Z,14.11
2024-04-09T05:51:17.285Z,14.23
2024-04-09T05:52:17.261Z,14.12
2024-04-09T05:53:17.320Z,14.20
2024-04-09T05:54:17.228Z,14.12
2024-04-09T05:55:17.206Z,14.03
2024-04-09T05:56:17.229Z,14.07
2024-04-09T05:57:17.232Z,14.05
2024-04-09T05:58:17.198Z,14.04
2024-04-09T05:59:17.183Z,14.05
2024-04-09T06:00:17.251Z,14.10
2024-04-09T06:01:17.307Z,13.96
2024-04-09T06:02:17.232Z,14.11
2024-04-09T06:03:17.184Z,14.10
2024-04-09T06:04:17.586Z,14.10
2024-04-09T06:05:17.208Z,14.23
2024-04-09T06:06:17.169Z,14.29
2024-04-09T06:07:17.111Z,14.35
2024-04-09T06:08:17.118Z,14.35
2024-04-09T06:09:17.169Z,14.30
2024-04-09T06:10:17.366Z,14.36
2024-04-09T06:11:17.157Z,14.33
2024-04-09T06:12:17.112Z,14.54
2024-04-09T06:13:17.091Z,14.51
2024-04-09T06:14:17.093Z,14.50
2024-04-09T06:15:17.106Z,14.51
2024-04-09T06:16:17.063Z,14.54
2024-04-09T06:17:17.048Z,14.60
2024-04-09T06:18:17.214Z,14.48
2024-04-09T06:19:17.270Z,14.43
2024-04-09T06:20:17.007Z,14.51
2024-04-09T06:21:17.063Z,14.45
2024-04-09T06:22:17.997Z,14.48
2024-04-09T06:23:17.053Z,14.53
2024-04-09T06:24:17.042Z,14.54
2024-04-09T06:25:16.992Z,14.69
2024-04-09T06:26:16.991Z,14.82
2024-04-09T06:27:17.000Z,14.78
2024-04-09T06:28:17.004Z,14.78
2024-04-09T06:29:16.970Z,14.88
2024-04-09T06:30:16.969Z,14.85
2024-04-09T06:31:16.959Z,14.86
2024-04-09T06:32:16.960Z,14.94
2024-04-09T06:33:17.101Z,14.73
2024-04-09T06:34:17.032Z,14.78
2024-04-09T06:35:16.904Z,14.78
2024-04-09T06:36:25.365Z,14.88
2024-04-09T06:37:17.911Z,14.88
2024-04-09T06:38:16.906Z,14.91
2024-04-09T06:39:16.890Z,15.11
2024-04-09T06:40:16.879Z,15.28
2024-04-09T06:41:16.865Z,15.35
2024-04-09T06:42:16.891Z,15.49
2024-04-09T06:43:16.872Z,15.55
2024-04-09T06:44:16.951Z,15.65
2024-04-09T06:45:16.910Z,15.64
2024-04-09T06:46:16.825Z,15.80
2024-04-09T06:47:16.916Z,15.80
2024-04-09T06:48:17.038Z,15.88
2024-04-09T06:49:16.922Z,15.82
2024-04-09T06:50:16.829Z,15.76
2024-04-09T06:51:16.814Z,15.82
2024-04-09T06:52:16.839Z,15.84
2024-04-09T06:53:16.777Z,15.84
2024-04-09T06:54:16.795Z,15.92
2024-04-09T06:55:16.764Z,15.90
2024-04-09T06:56:16.749Z,15.84
2024-04-09T06:57:16.788Z,15.80
2024-04-09T06:58:16.747Z,15.94
2024-04-09T06:59:16.739Z,15.88
2024-04-09T07:00:16.803Z,15.83
2024-04-09T07:01:16.770Z,15.91
2024-04-09T07:02:16.774Z,15.95
2024-04-09T07:03:16.768Z,15.92
2024-04-09T07:04:16.875Z,15.88
2024-04-09T07:05:16.685Z,15.86
2024-04-09T07:06:16.763Z,16.09
2024-04-09T07:07:16.661Z,16.09
2024-04-09T07:08:16.668Z,16.08
2024-04-09T07:09:16.734Z,16.13
2024-04-09T07:10:16.642Z,16.23
2024-04-09T07:11:16.685Z,16.29
2024-04-09T07:12:16.663Z,16.46
2024-04-09T07:13:17.613Z,16.42
2024-04-09T07:14:16.634Z,16.46
2024-04-09T07:15:16.705Z,16.54
2024-04-09T07:16:16.639Z,16.54
2024-04-09T07:17:16.609Z,16.58
2024-04-09T07:18:16.625Z,16.72
2024-04-09T07:19:16.582Z,16.58
2024-04-09T07:20:16.603Z,16.74
2024-04-09T07:21:16.595Z,16.75
2024-04-09T07:22:16.549Z,16.84
2024-04-09T07:23:16.582Z,16.90
2024-04-09T07:24:16.546Z,17.02
2024-04-09T07:25:16.577Z,17.02
2024-04-09T07:26:16.533Z,17.16
2024-04-09T07:27:16.579Z,17.26
2024-04-09T07:28:16.507Z,17.39
2024-04-09T07:29:16.578Z,17.49
2024-04-09T07:30:16.605Z,17.48
2024-04-09T07:31:16.508Z,17.71
2024-04-09T07:32:16.501Z,17.71
2024-04-09T07:33:16.613Z,17.80
2024-04-09T07:34:16.538Z,17.82
2024-04-09T07:35:16.458Z,17.90
2024-04-09T07:36:16.500Z,18.07
2024-04-09T07:37:16.436Z,18.15
2024-04-09T07:38:16.421Z,18.19
2024-04-09T07:39:16.660Z,18.18
2024-04-09T07:40:16.436Z,18.41
2024-04-09T07:41:17.057Z,18.45
2024-04-09T07:42:16.413Z,18.38
2024-04-09T07:43:16.412Z,18.52
2024-04-09T07:44:16.420Z,18.74
2024-04-09T07:45:16.401Z,18.81
2024-04-09T07:46:16.371Z,18.83
2024-04-09T07:47:16.431Z,18.93
2024-04-09T07:48:16.488Z,18.93
2024-04-09T07:49:16.479Z,18.95
2024-04-09T07:50:16.353Z,19.02
2024-04-09T07:51:16.362Z,19.08
2024-04-09T07:52:16.344Z,19.21
2024-04-09T07:53:16.342Z,19.27
2024-04-09T07:54:16.329Z,19.41
2024-04-09T07:55:16.305Z,19.63
2024-04-09T07:56:16.320Z,19.62
2024-04-09T07:57:16.313Z,19.62
2024-04-09T07:58:16.352Z,19.85
2024-04-09T07:59:16.267Z,19.86
2024-04-09T08:00:16.447Z,19.86
2024-04-09T08:01:16.275Z,19.96
2024-04-09T08:02:16.267Z,19.94
2024-04-09T08:03:16.349Z,20.14
2024-04-09T08:04:16.726Z,20.21
2024-04-09T08:05:16.356Z,20.22
2024-04-09T08:06:16.407Z,20.21
2024-04-09T08:07:16.492Z,20.25
2024-04-09T08:08:16.634Z,20.26
2024-04-09T08:09:16.370Z,20.39
2024-04-09T08:10:16.219Z,20.60
2024-04-09T08:11:16.347Z,20.62
2024-04-09T08:12:16.320Z,20.66
2024-04-09T08:13:16.219Z,20.65
2024-04-09T08:14:16.150Z,20.67
2024-04-09T08:15:16.188Z,20.75
2024-04-09T08:16:16.225Z,20.74
2024-04-09T08:17:16.257Z,20.84
2024-04-09T08:18:16.193Z,20.96
2024-04-09T08:19:16.233Z,21.20
2024-04-09T08:20:16.176Z,21.35
2024-04-09T08:21:17.170Z,21.37
2024-04-09T08:22:16.128Z,21.54
2024-04-09T08:23:16.075Z,21.70
2024-04-09T08:24:16.085Z,21.69
2024-04-09T08:25:17.105Z,21.51
2024-04-09T08:26:16.103Z,21.36
2024-04-09T08:27:16.113Z,21.33
2024-04-09T08:28:16.036Z,21.45
2024-04-09T08:29:16.024Z,21.45
2024-04-09T08:30:16.079Z,21.43
2024-04-09T08:31:16.087Z,21.54
2024-04-09T08:32:16.060Z,21.48
2024-04-09T08:33:16.090Z,21.42
2024-04-09T08:34:17.409Z,21.51
2024-04-09T08:35:16.067Z,21.60
2024-04-09T08:36:16.056Z,21.51
2024-04-09T08:37:16.045Z,21.60
2024-04-09T08:38:16.014Z,21.70
2024-04-09T08:39:16.112Z,21.64
2024-04-09T08:40:16.178Z,21.82
2024-04-09T08:41:15.996Z,21.82
2024-04-09T08:42:16.098Z,21.93
2024-04-09T08:43:16.228Z,21.79
2024-04-09T08:44:16.012Z,21.80
2024-04-09T08:45:16.023Z,21.77
2024-04-09T08:46:16.020Z,21.33
2024-04-09T08:47:15.927Z,21.02
2024-04-09T08:48:16.093Z,21.21
2024-04-09T08:49:16.078Z,21.33
2024-04-09T08:50:16.190Z,21.58
2024-04-09T08:51:16.338Z,21.72
2024-04-09T08:52:16.022Z,21.52
2024-04-09T08:53:15.940Z,21.36
2024-04-09T08:54:15.907Z,21.51
2024-04-09T08:55:18.630Z,21.35
2024-04-09T08:56:16.829Z,21.36
2024-04-09T08:57:15.869Z,21.54
2024-04-09T08:58:15.813Z,21.22
2024-04-09T08:59:15.878Z,21.05
2024-04-09T09:00:15.855Z,20.82
2024-04-09T09:01:15.899Z,20.85
2024-04-09T09:02:15.812Z,20.90
2024-04-09T09:03:15.895Z,21.03
2024-04-09T09:04:15.917Z,21.32
2024-04-09T09:05:15.905Z,21.58
2024-04-09T09:06:15.809Z,21.54
2024-04-09T09:07:15.752Z,21.48
2024-04-09T09:08:15.740Z,21.42
2024-04-09T09:09:15.780Z,21.39
2024-04-09T09:10:15.762Z,21.43
2024-04-09T09:11:15.719Z,21.45
2024-04-09T09:12:15.780Z,21.61
2024-04-09T09:13:15.694Z,21.36
2024-04-09T09:14:15.751Z,21.43
2024-04-09T09:15:15.731Z,21.39
2024-04-09T09:16:15.777Z,21.18
2024-04-09T09:17:15.731Z,21.20
2024-04-09T09:18:15.764Z,21.20
2024-04-09T09:19:15.755Z,21.25
2024-04-09T09:20:15.660Z,21.36
2024-04-09T09:21:15.686Z,21.32
2024-04-09T09:22:15.638Z,21.43
2024-04-09T09:23:15.620Z,21.60
2024-04-09T09:24:15.762Z,21.91
2024-04-09T09:25:15.640Z,21.85
2024-04-09T09:26:15.611Z,21.76
2024-04-09T09:27:15.637Z,21.80
2024-04-09T09:28:15.595Z,21.72
2024-04-09T09:29:15.634Z,21.42
2024-04-09T09:30:15.900Z,21.39
2024-04-09T09:31:15.570Z,21.32
2024-04-09T09:32:15.745Z,21.54
2024-04-09T09:33:15.734Z,21.57
2024-04-09T09:34:15.569Z,21.52
2024-04-09T09:35:15.549Z,21.54
2024-04-09T09:36:15.572Z,21.69
2024-04-09T09:37:15.515Z,21.75
2024-04-09T09:38:16.539Z,21.64
2024-04-09T09:39:15.608Z,21.52
2024-04-09T09:40:15.589Z,21.57
2024-04-09T09:41:15.550Z,21.73
2024-04-09T09:42:15.507Z,21.72
2024-04-09T09:43:15.930Z,21.62
2024-04-09T09:44:15.465Z,21.42
2024-04-09T09:45:15.574Z,21.46
2024-04-09T09:46:15.456Z,21.52
2024-04-09T09:47:15.539Z,21.48
2024-04-09T09:48:15.591Z,21.39
2024-04-09T09:49:19.468Z,21.42
2024-04-09T09:50:18.796Z,20.93
2024-04-09T09:51:16.501Z,20.77
2024-04-09T09:52:15.414Z,20.88
2024-04-09T09:53:15.823Z,20.88
2024-04-09T09:54:16.587Z,20.84
2024-04-09T09:55:15.567Z,20.87
2024-04-09T09:56:15.370Z,20.84
2024-04-09T09:57:15.522Z,20.82
2024-04-09T09:58:15.413Z,20.75
2024-04-09T09:59:15.433Z,20.75
2024-04-09T10:00:15.369Z,20.72
2024-04-09T10:01:15.371Z,20.66
2024-04-09T10:02:15.358Z,20.80
2024-04-09T10:03:15.384Z,20.84
2024-04-09T10:04:15.385Z,20.85
2024-04-09T10:05:15.352Z,20.81
2024-04-09T10:06:15.330Z,20.62
2024-04-09T10:07:15.331Z,20.60
2024-04-09T10:08:15.288Z,20.58
2024-04-09T10:09:15.347Z,20.75
2024-04-09T10:10:15.334Z,20.75
2024-04-09T10:11:15.355Z,20.74
2024-04-09T10:12:16.551Z,20.67
2024-04-09T10:13:16.242Z,20.65
2024-04-09T10:14:15.231Z,20.67
2024-04-09T10:15:16.384Z,20.62
2024-04-09T10:16:15.275Z,20.69
2024-04-09T10:17:15.307Z,20.65
2024-04-09T10:18:15.527Z,20.65
2024-04-09T10:19:15.355Z,20.70
2024-04-09T10:20:15.185Z,20.43
2024-04-09T10:21:15.241Z,20.41
2024-04-09T10:22:15.199Z,20.36
2024-04-09T10:23:15.193Z,20.16
2024-04-09T10:24:15.175Z,20.09
2024-04-09T10:25:15.151Z,20.10
2024-04-09T10:26:15.169Z,19.91
2024-04-09T10:27:15.164Z,19.84
2024-04-09T10:28:15.126Z,19.77
2024-04-09T10:29:15.144Z,19.71
2024-04-09T10:30:16.239Z,19.69
2024-04-09T10:31:15.123Z,19.54
2024-04-09T10:32:15.097Z,19.51
2024-04-09T10:33:15.232Z,19.37
2024-04-09T10:34:15.213Z,19.19
2024-04-09T10:35:15.099Z,19.19
2024-04-09T10:36:15.901Z,19.15
2024-04-09T10:37:15.048Z,19.07
2024-04-09T10:38:15.032Z,19.02
2024-04-09T10:39:15.082Z,19.00
2024-04-09T10:40:15.063Z,19.04
2024-04-09T10:41:15.290Z,19.16
2024-04-09T10:42:15.031Z,19.12
2024-04-09T10:43:15.017Z,19.09
2024-04-09T10:44:14.994Z,18.98
2024-04-09T10:45:15.028Z,18.95
2024-04-09T10:46:16.141Z,18.75
2024-04-09T10:47:15.042Z,18.74
2024-04-09T10:48:15.065Z,18.74
2024-04-09T10:49:15.294Z,18.65
2024-04-09T10:50:14.979Z,18.52
2024-04-09T10:51:15.358Z,18.34
2024-04-09T10:52:14.949Z,18.28
2024-04-09T10:53:14.948Z,18.13
2024-04-09T10:54:15.052Z,18.16
2024-04-09T10:55:14.906Z,18.00
2024-04-09T10:56:14.901Z,17.86
2024-04-09T10:57:14.946Z,17.59
2024-04-09T10:58:14.915Z,17.57
2024-04-09T10:59:14.913Z,17.54
2024-04-09T11:00:14.915Z,17.56
2024-04-09T11:01:15.168Z,17.63
2024-04-09T11:02:14.879Z,17.52
2024-04-09T11:03:15.060Z,17.36
2024-04-09T11:04:14.997Z,17.15
2024-04-09T11:05:14.926Z,17.14
2024-04-09T11:06:14.872Z,17.19
2024-04-09T11:07:14.816Z,17.15
2024-04-09T11:08:14.831Z,16.97
2024-04-09T11:09:14.887Z,16.91
2024-04-09T11:10:14.775Z,16.89
2024-04-09T11:11:16.003Z,16.97
2024-04-09T11:12:14.806Z,16.93
2024-04-09T11:13:14.806Z,16.91
2024-04-09T11:14:14.788Z,16.84
2024-04-09T11:15:14.804Z,16.94
2024-04-09T11:16:14.754Z,16.83
2024-04-09T11:17:14.772Z,16.78
2024-04-09T11:18:14.897Z,16.71
2024-04-09T11:19:14.825Z,16.58
2024-04-09T11:20:14.742Z,16.56
2024-04-09T11:21:15.712Z,16.47
2024-04-09T11:22:14.739Z,16.54
2024-04-09T11:23:14.721Z,16.54
2024-04-09T11:24:14.758Z,16.57
2024-04-09T11:25:14.695Z,16.69
2024-04-09T11:26:14.670Z,16.68
2024-04-09T11:27:14.763Z,16.64
2024-04-09T11:28:14.661Z,16.53
2024-04-09T11:29:14.683Z,16.50
2024-04-09T11:30:14.694Z,16.50
2024-04-09T11:31:14.655Z,16.31
2024-04-09T11:32:14.657Z,16.28
2024-04-09T11:33:14.826Z,16.12
2024-04-09T11:34:14.707Z,15.97
2024-04-09T11:35:14.634Z,16.05
2024-04-09T11:36:23.765Z,15.95
2024-04-09T11:37:16.646Z,16.04
2024-04-09T11:38:14.605Z,16.02
2024-04-09T11:39:14.604Z,15.83
2024-04-09T11:40:14.565Z,15.61
2024-04-09T11:41:14.559Z,15.64
2024-04-09T11:42:14.630Z,15.72
2024-04-09T11:43:14.815Z,15.76
2024-04-09T11:44:15.632Z,15.76
2024-04-09T11:45:14.549Z,15.72
2024-04-09T11:46:14.544Z,15.75
2024-04-09T11:47:14.698Z,15.82
2024-04-09T11:48:14.704Z,15.65
2024-04-09T11:49:14.567Z,15.65
2024-04-09T11:50:14.484Z,15.58
2024-04-09T11:51:14.533Z,15.36
2024-04-09T11:52:14.492Z,15.49
2024-04-09T11:53:19.998Z,15.43
2024-04-09T11:54:18.987Z,15.47
2024-04-09T11:55:17.755Z,15.58
2024-04-09T11:56:15.505Z,15.52
2024-04-09T11:57:14.464Z,15.52
2024-04-09T11:58:14.429Z,15.65
2024-04-09T11:59:14.429Z,15.62
2024-04-09T12:00:14.501Z,15.72
2024-04-09T12:01:14.807Z,15.70
2024-04-09T12:02:14.401Z,15.59
2024-04-09T12:03:14.509Z,15.64
2024-04-09T12:04:14.545Z,15.57
2024-04-09T12:05:15.283Z,15.49
2024-04-09T12:06:14.454Z,15.57
2024-04-09T12:07:14.382Z,15.43
2024-04-09T12:08:14.374Z,15.40
2024-04-09T12:09:14.375Z,15.31
2024-04-09T12:10:14.366Z,15.46
2024-04-09T12:11:14.378Z,15.42
2024-04-09T12:12:14.364Z,15.58
2024-04-09T12:13:14.314Z,15.39
2024-04-09T12:14:14.318Z,15.17
2024-04-09T12:15:14.344Z,15.17
2024-04-09T12:16:14.298Z,15.21
2024-04-09T12:17:14.330Z,15.22
2024-04-09T12:18:14.475Z,15.15
2024-04-09T12:19:14.481Z,15.02
2024-04-09T12:20:14.296Z,15.04
2024-04-09T12:21:14.363Z,14.96
2024-04-09T12:22:14.243Z,15.15
2024-04-09T12:23:14.239Z,15.09
2024-04-09T12:24:14.328Z,15.02
2024-04-09T12:25:14.256Z,15.02
2024-04-09T12:26:15.226Z,15.10
2024-04-09T12:27:14.244Z,15.22
2024-04-09T12:28:14.197Z,15.27
2024-04-09T12:29:14.331Z,15.39
2024-04-09T12:30:14.221Z,15.36
2024-04-09T12:31:14.187Z,15.28
2024-04-09T12:32:14.172Z,15.27
2024-04-09T12:33:14.260Z,15.15
2024-04-09T12:34:14.394Z,15.22
2024-04-09T12:35:14.170Z,15.00
2024-04-09T12:36:14.177Z,15.02
2024-04-09T12:37:14.124Z,15.06
2024-04-09T12:38:14.184Z,15.09
2024-04-09T12:39:14.189Z,14.88
2024-04-09T12:40:14.644Z,14.94
2024-04-09T12:41:14.101Z,15.03
2024-04-09T12:42:14.210Z,15.07
2024-04-09T12:43:14.131Z,15.02
2024-04-09T12:44:14.080Z,15.11
2024-04-09T12:45:14.125Z,15.14
2024-04-09T12:46:14.068Z,14.97
2024-04-09T12:47:14.107Z,14.91
2024-04-09T12:48:14.216Z,15.17
2024-04-09T12:49:24.268Z,14.99
2024-04-09T12:50:16.166Z,15.02
2024-04-09T12:51:14.084Z,15.06
2024-04-09T12:52:14.083Z,15.06